Time;durP1;ratioP1;P1;durP2;ratioP2;P2;SDS_P1;SDS_P2;PMS_P1;PMS_P2;Temp;Humidity;BMP_temperature;BMP_pressure;BME280_temperature;BME280_humidity;BME280_pressure;Samples;Min_cycle;Max_cycle;Signal;HPM_P1;HPM_P2
2022/06/04 07:27:08;;;;;;;7.85;6.32;;;;;;;;;;6250128;22;20326;-90
2022/06/04 07:29:34;;;;;;;10.05;7.30;;;;;;;;;;6277474;22;20034;-89
2022/06/04 08:04:06;;;;;;;8.73;6.50;;;;;;;;;;6274724;22;20016;-78
2022/06/04 08:06:32;;;;;;;7.65;6.85;;;;;;;;;;6277640;22;20081;-79
2022/06/04 08:08:58;;;;;;;8.38;7.50;;;;;;;;;;6276740;22;20004;-78
2022/06/04 08:11:30;;;;;;;7.78;7.05;;;;;;;;;;6248329;23;20027;-85
2022/06/04 08:14:02;;;;;;;7.65;6.78;;;;;;;;;;6248249;23;20000;-78
2022/06/04 08:16:28;;;;;;;7.15;6.55;;;;;;;;;;6246469;23;20343;-79
2022/06/04 08:18:55;;;;;;;7.85;6.82;;;;;;;;;;6247642;22;20008;-88
2022/06/04 08:21:21;;;;;;;7.78;6.95;;;;;;;;;;6248042;23;20011;-79
2022/06/04 08:23:47;;;;;;;9.32;6.70;;;;;;;;;;6248299;23;20004;-86
2022/06/04 08:26:13;;;;;;;7.85;6.82;;;;;;;;;;6246480;23;20030;-83
2022/06/04 08:28:38;;;;;;;7.93;7.13;;;;;;;;;;6248350;23;20004;-79
2022/06/04 08:31:07;;;;;;;6.65;6.05;;;;;;;;;;6251589;22;20370;-88
2022/06/04 08:33:39;;;;;;;7.00;6.40;;;;;;;;;;6247398;23;20004;-82
2022/06/04 08:36:06;;;;;;;6.43;5.82;;;;;;;;;;6248427;23;20004;-83
2022/06/04 08:38:32;;;;;;;11.13;7.25;;;;;;;;;;6248050;23;20000;-83
2022/06/04 08:41:01;;;;;;;8.20;6.75;;;;;;;;;;6248537;22;20446;-84
2022/06/04 08:43:42;;;;;;;;;;;;;;;;;;6250085;23;20004;-86
2022/06/04 08:46:32;;;;;;;7.32;6.57;;;;;;;;;;6250070;23;19907;-85
2022/06/04 08:49:04;;;;;;;6.45;5.85;;;;;;;;;;6248578;22;20000;-88
2022/06/04 08:51:30;;;;;;;7.50;6.03;;;;;;;;;;6246901;23;20078;-90
2022/06/04 08:53:58;;;;;;;7.47;6.03;;;;;;;;;;6248714;23;19996;-89
2022/06/04 08:59:39;;;;;;;7.38;6.70;;;;;;;;;;6247676;22;20015;-80
2022/06/04 09:02:13;;;;;;;7.03;6.32;;;;;;;;;;6246299;23;20000;-81
2022/06/04 09:05:14;;;;;;;8.55;7.22;;;;;;;;;;6247560;23;20008;-78
2022/06/04 09:07:46;;;;;;;8.25;6.88;;;;;;;;;;6226946;22;20012;-78
2022/06/04 09:10:21;;;;;;;7.72;7.03;;;;;;;;;;6247835;22;20004;-82
2022/06/04 09:12:55;;;;;;;7.68;6.97;;;;;;;;;;6247811;23;20024;-85
2022/06/04 09:15:30;;;;;;;6.78;6.13;;;;;;;;;;6247480;23;20012;-78
2022/06/04 09:17:58;;;;;;;7.47;6.15;;;;;;;;;;6250405;22;20424;-78
2022/06/04 09:20:33;;;;;;;6.95;6.25;;;;;;;;;;6278165;22;20003;-77
2022/06/04 09:23:19;;;;;;;7.15;6.45;;;;;;;;;;6277058;22;20010;-77
2022/06/04 09:26:14;;;;;;;7.05;6.35;;;;;;;;;;6277232;22;20099;-77
2022/06/04 09:29:02;;;;;;;8.05;6.25;;;;;;;;;;6264045;22;20012;-78
2022/06/04 09:31:50;;;;;;;7.53;6.40;;;;;;;;;;6278014;22;20026;-78
2022/06/04 09:34:19;;;;;;;10.18;6.88;;;;;;;;;;6176442;23;20008;-77
2022/06/04 09:36:46;;;;;;;6.20;5.70;;;;;;;;;;6265513;22;20027;-83
2022/06/04 09:39:31;;;;;;;6.90;6.22;;;;;;;;;;6277917;22;20427;-79
2022/06/04 09:42:00;;;;;;;7.40;6.70;;;;;;;;;;6277861;22;20015;-81
2022/06/04 09:44:28;;;;;;;7.03;6.43;;;;;;;;;;6278696;22;20007;-82
2022/06/04 09:47:15;;;;;;;8.02;6.45;;;;;;;;;;6278307;22;20015;-80
2022/06/04 09:49:49;;;;;;;9.55;6.22;;;;;;;;;;6277750;22;20061;-76
2022/06/04 09:52:33;;;;;;;7.20;6.55;;;;;;;;;;6277333;22;20411;-76
2022/06/04 09:55:03;;;;;;;7.50;6.80;;;;;;;;;;6277425;22;20012;-75
2022/06/04 09:57:30;;;;;;;8.70;7.55;;;;;;;;;;6277532;22;19996;-79
2022/06/04 09:59:58;;;;;;;9.00;7.55;;;;;;;;;;6277957;22;20050;-82
2022/06/04 10:02:24;;;;;;;8.13;7.32;;;;;;;;;;6277916;22;20000;-75
2022/06/04 10:04:59;;;;;;;8.82;7.93;;;;;;;;;;6277840;22;20295;-76
2022/06/04 10:07:31;;;;;;;9.02;8.15;;;;;;;;;;6277751;22;20453;-75
2022/06/04 10:10:00;;;;;;;9.35;7.60;;;;;;;;;;6277551;22;19999;-75
2022/06/04 10:15:40;;;;;;;8.95;7.90;;;;;;;;;;6277783;22;19953;-80
2022/06/04 10:18:05;;;;;;;8.60;7.65;;;;;;;;;;6277474;22;20006;-77
2022/06/04 10:20:32;;;;;;;9.75;7.75;;;;;;;;;;6277556;22;20039;-80
2022/06/04 10:22:58;;;;;;;7.25;6.65;;;;;;;;;;6277511;22;19999;-78
2022/06/04 10:25:32;;;;;;;8.05;7.15;;;;;;;;;;6277715;22;20323;-78
2022/06/04 10:28:30;;;;;;;8.00;6.97;;;;;;;;;;6277559;22;20003;-77
2022/06/04 10:31:07;;;;;;;8.30;7.50;;;;;;;;;;6225483;22;20415;-78
2022/06/04 10:33:53;;;;;;;8.70;7.90;;;;;;;;;;6277681;22;20334;-79
2022/06/04 10:36:42;;;;;;;8.95;7.43;;;;;;;;;;6277408;22;20118;-80
2022/06/04 10:39:35;;;;;;;8.82;7.10;;;;;;;;;;6277665;22;20004;-83
2022/06/04 10:42:35;;;;;;;8.25;7.00;;;;;;;;;;6208704;22;20007;-77
2022/06/04 10:45:14;;;;;;;7.88;7.10;;;;;;;;;;6278057;22;20014;-77
2022/06/04 10:48:10;;;;;;;8.73;8.00;;;;;;;;;;6277536;22;20069;-75
2022/06/04 10:53:49;;;;;;;7.72;7.03;;;;;;;;;;6277161;22;20010;-75
2022/06/04 10:56:21;;;;;;;8.65;7.75;;;;;;;;;;6200140;22;20050;-76
2022/06/04 10:59:02;;;;;;;7.57;6.85;;;;;;;;;;6277514;22;20000;-76
2022/06/04 11:01:34;;;;;;;9.02;7.10;;;;;;;;;;6277272;22;20019;-76
2022/06/04 11:04:08;;;;;;;8.55;7.68;;;;;;;;;;6277239;22;20022;-76
2022/06/04 11:06:41;;;;;;;8.27;7.50;;;;;;;;;;6277451;22;20035;-76
2022/06/04 11:09:20;;;;;;;8.60;7.80;;;;;;;;;;6277162;22;20000;-76
2022/06/04 11:11:49;;;;;;;9.20;7.32;;;;;;;;;;6277484;22;20079;-77
2022/06/04 11:14:34;;;;;;;7.40;6.70;;;;;;;;;;6277384;22;20138;-76
2022/06/04 11:17:18;;;;;;;7.72;7.13;;;;;;;;;;6277391;22;20027;-75
2022/06/04 11:19:46;;;;;;;7.30;6.60;;;;;;;;;;6277146;22;20006;-75
2022/06/04 11:22:23;;;;;;;7.85;6.97;;;;;;;;;;6275997;22;20327;-75
2022/06/04 11:24:56;;;;;;;7.68;6.88;;;;;;;;;;6276801;22;20011;-76
2022/06/04 11:27:29;;;;;;;8.15;7.03;;;;;;;;;;6276946;22;20010;-74
2022/06/04 11:29:55;;;;;;;9.15;7.20;;;;;;;;;;6276655;22;20031;-76
2022/06/04 11:32:33;;;;;;;8.93;6.95;;;;;;;;;;6276765;22;20015;-76
2022/06/04 11:35:03;;;;;;;7.60;6.23;;;;;;;;;;6276837;22;20480;-75
2022/06/04 11:37:46;;;;;;;8.57;6.45;;;;;;;;;;6277019;22;20331;-76
2022/06/04 11:40:21;;;;;;;7.90;6.50;;;;;;;;;;6276273;22;20061;-75
2022/06/04 11:42:55;;;;;;;9.70;6.72;;;;;;;;;;6276790;22;20004;-76
2022/06/04 11:45:49;;;;;;;6.20;5.65;;;;;;;;;;6276787;22;20493;-76
2022/06/04 11:48:30;;;;;;;5.78;5.35;;;;;;;;;;6262013;22;20118;-75
2022/06/04 11:51:04;;;;;;;8.05;5.13;;;;;;;;;;6276787;22;20083;-74
2022/06/04 11:53:30;;;;;;;6.45;5.60;;;;;;;;;;6276946;22;20003;-76
2022/06/04 11:56:01;;;;;;;6.95;4.80;;;;;;;;;;6276747;22;20337;-76
2022/06/04 11:58:38;;;;;;;5.15;4.40;;;;;;;;;;6277076;22;20004;-77
2022/06/04 12:01:31;;;;;;;6.35;5.07;;;;;;;;;;6276896;22;20004;-76
2022/06/04 12:04:14;;;;;;;5.65;4.40;;;;;;;;;;6260223;22;20062;-75
2022/06/04 12:06:50;;;;;;;9.65;5.03;;;;;;;;;;6276984;22;20331;-75
2022/06/04 12:09:48;;;;;;;13.32;8.27;;;;;;;;;;6276832;22;20414;-76
2022/06/04 12:12:24;;;;;;;6.32;4.65;;;;;;;;;;6263454;22;20038;-75
2022/06/04 12:15:06;;;;;;;7.07;6.30;;;;;;;;;;6276979;22;20322;-75
2022/06/04 12:17:45;;;;;;;7.10;5.00;;;;;;;;;;6277115;22;20296;-76
2022/06/04 12:26:40;;;;;;;6.60;4.70;;;;;;;;;;6276568;22;20345;-75
2022/06/04 12:29:31;;;;;;;4.90;4.43;;;;;;;;;;6276482;22;20326;-76
2022/06/04 12:32:18;;;;;;;6.80;4.93;;;;;;;;;;6276716;22;20027;-75
2022/06/04 12:34:45;;;;;;;7.60;4.90;;;;;;;;;;6244221;23;20410;-75
2022/06/04 12:37:40;;;;;;;6.57;4.53;;;;;;;;;;6269511;22;20004;-75
2022/06/04 12:40:22;;;;;;;8.15;4.82;;;;;;;;;;6276514;22;20335;-77
2022/06/04 12:43:06;;;;;;;7.13;4.55;;;;;;;;;;6276686;22;20010;-77
2022/06/04 12:45:37;;;;;;;6.78;4.82;;;;;;;;;;6276653;22;20034;-77
2022/06/04 12:48:18;;;;;;;7.60;5.15;;;;;;;;;;6276479;22;20004;-77
2022/06/04 12:50:50;;;;;;;7.25;5.15;;;;;;;;;;6276495;22;20086;-78
2022/06/04 12:53:22;;;;;;;7.13;6.05;;;;;;;;;;6278391;22;20018;-85
2022/06/04 12:55:49;;;;;;;6.68;4.53;;;;;;;;;;6278617;22;19999;-81
2022/06/04 12:58:34;;;;;;;8.40;5.70;;;;;;;;;;6278221;22;20004;-83
2022/06/04 13:01:16;;;;;;;8.95;5.50;;;;;;;;;;6278127;22;20062;-84
2022/06/04 13:03:44;;;;;;;8.10;5.30;;;;;;;;;;6278305;22;20016;-83
2022/06/04 13:06:12;;;;;;;8.40;5.28;;;;;;;;;;6278277;22;20003;-81
2022/06/04 13:08:50;;;;;;;9.53;5.50;;;;;;;;;;6278226;22;19999;-84
2022/06/04 13:11:25;;;;;;;9.18;6.20;;;;;;;;;;6247944;23;20008;-84
2022/06/04 13:14:02;;;;;;;11.98;5.90;;;;;;;;;;6266061;22;20011;-78
2022/06/04 13:16:30;;;;;;;9.20;5.10;;;;;;;;;;6278306;22;20027;-78
2022/06/04 13:19:08;;;;;;;8.52;4.88;;;;;;;;;;6278013;22;20000;-78
2022/06/04 13:21:39;;;;;;;9.13;4.93;;;;;;;;;;6277937;22;20045;-77
2022/06/04 13:24:13;;;;;;;8.00;5.10;;;;;;;;;;6278588;22;20004;-77
2022/06/04 13:26:45;;;;;;;10.63;6.07;;;;;;;;;;6278123;22;20300;-77
2022/06/04 13:29:28;;;;;;;7.88;6.40;;;;;;;;;;6277964;22;19995;-77
2022/06/04 13:31:56;;;;;;;10.77;5.25;;;;;;;;;;6277884;22;20003;-78
2022/06/04 13:34:27;;;;;;;11.45;6.32;;;;;;;;;;6277972;22;20027;-78
2022/06/04 13:37:01;;;;;;;10.80;6.38;;;;;;;;;;6278069;22;20053;-78
2022/06/04 13:39:27;;;;;;;12.93;6.18;;;;;;;;;;6277894;22;19996;-78
2022/06/04 13:42:01;;;;;;;8.13;5.93;;;;;;;;;;6277920;22;20373;-78
2022/06/04 13:44:29;;;;;;;7.22;4.82;;;;;;;;;;6277963;22;20007;-77
2022/06/04 13:47:36;;;;;;;9.25;5.32;;;;;;;;;;6277743;22;20018;-77
2022/06/04 13:50:05;;;;;;;13.85;9.00;;;;;;;;;;6272868;22;20000;-80
2022/06/04 13:53:17;;;;;;;13.15;6.82;;;;;;;;;;6287290;22;20000;-91
2022/06/04 13:55:52;;;;;;;8.63;5.40;;;;;;;;;;6291128;22;20004;-92
2022/06/04 13:58:41;;;;;;;8.95;6.38;;;;;;;;;;6286367;22;19996;-91
2022/06/04 14:01:16;;;;;;;12.68;6.13;;;;;;;;;;6280334;22;20403;-93
2022/06/04 14:03:51;;;;;;;10.43;5.60;;;;;;;;;;6280475;22;20022;-86
2022/06/04 14:06:20;;;;;;;10.88;5.50;;;;;;;;;;6278664;22;20011;-87
2022/06/04 14:08:51;;;;;;;13.07;5.65;;;;;;;;;;6267093;22;20370;-88
2022/06/04 14:11:43;;;;;;;10.40;5.45;;;;;;;;;;6278721;22;20322;-88
2022/06/04 14:14:45;;;;;;;6.22;5.18;;;;;;;;;;6278549;22;20445;-88
2022/06/04 14:17:17;;;;;;;8.80;4.88;;;;;;;;;;6166375;22;20006;-89
2022/06/04 14:20:13;;;;;;;10.35;5.38;;;;;;;;;;6278745;22;20423;-90
2022/06/04 14:22:59;;;;;;;6.68;5.10;;;;;;;;;;6279579;22;19999;-87
2022/06/04 14:25:39;;;;;;;9.50;5.40;;;;;;;;;;6277254;22;20010;-77
2022/06/04 14:28:25;;;;;;;9.25;5.45;;;;;;;;;;6277480;22;20006;-78
2022/06/04 14:31:01;;;;;;;10.00;5.25;;;;;;;;;;6277396;22;20431;-79
2022/06/04 14:33:27;;;;;;;8.63;5.63;;;;;;;;;;6277689;22;20084;-79
2022/06/04 14:36:05;;;;;;;9.27;4.88;;;;;;;;;;6277614;22;20423;-83
2022/06/04 14:38:34;;;;;;;8.23;5.32;;;;;;;;;;6277805;22;20430;-80
2022/06/04 14:41:20;;;;;;;10.38;5.43;;;;;;;;;;6277439;22;20004;-80
2022/06/04 14:44:01;;;;;;;7.80;4.88;;;;;;;;;;6277474;22;20004;-80
2022/06/04 14:46:44;;;;;;;8.77;4.43;;;;;;;;;;6277548;22;20010;-80
2022/06/04 14:49:19;;;;;;;11.13;5.25;;;;;;;;;;6245108;22;20435;-80
2022/06/04 14:52:18;;;;;;;7.78;4.57;;;;;;;;;;6277166;22;20014;-80
2022/06/04 14:54:45;;;;;;;8.13;4.63;;;;;;;;;;6277282;22;20011;-87
2022/06/04 14:57:35;;;;;;;7.25;4.30;;;;;;;;;;6245374;23;20131;-83
2022/06/04 15:00:45;;;;;;;9.93;5.10;;;;;;;;;;6267945;22;20004;-83
2022/06/04 15:02:58;;;;;;;8.60;4.82;;;;;;;;;;6260982;22;20023;-83
2022/06/04 15:05:37;;;;;;;7.00;4.22;;;;;;;;;;6277255;22;20003;-83
2022/06/04 15:08:49;;;;;;;8.77;4.70;;;;;;;;;;6277194;22;19999;-83
2022/06/04 15:12:00;;;;;;;11.20;6.10;;;;;;;;;;6241176;22;20300;-83
2022/06/04 15:14:39;;;;;;;10.80;5.25;;;;;;;;;;6246235;22;20008;-83
2022/06/04 15:17:16;;;;;;;12.50;4.13;;;;;;;;;;6244594;23;20004;-83
2022/06/04 15:19:55;;;;;;;7.97;4.80;;;;;;;;;;6276498;22;20008;-83
2022/06/04 15:22:23;;;;;;;7.45;4.47;;;;;;;;;;6277552;22;20085;-83
2022/06/04 15:24:55;;;;;;;8.27;4.83;;;;;;;;;;6277157;22;20074;-83
2022/06/04 15:27:42;;;;;;;10.27;4.60;;;;;;;;;;6277065;22;20003;-83
2022/06/04 15:36:30;;;;;;;7.75;4.32;;;;;;;;;;6287629;22;20007;-83
2022/06/04 15:39:17;;;;;;;10.15;4.30;;;;;;;;;;6244283;22;20142;-82
2022/06/04 15:42:14;;;;;;;7.60;4.78;;;;;;;;;;6276702;22;20007;-82
2022/06/04 15:45:05;;;;;;;8.27;4.55;;;;;;;;;;6276971;22;20422;-83
2022/06/04 15:47:44;;;;;;;7.90;4.40;;;;;;;;;;6277334;22;20130;-82
2022/06/04 15:56:06;;;;;;;14.98;4.95;;;;;;;;;;6276900;22;20015;-83
2022/06/04 15:58:35;;;;;;;8.38;4.38;;;;;;;;;;6277296;22;20027;-82
2022/06/04 16:01:11;;;;;;;8.73;4.70;;;;;;;;;;6276704;22;20007;-83
2022/06/04 16:03:49;;;;;;;7.25;4.57;;;;;;;;;;6276900;22;20012;-82
2022/06/04 16:06:16;;;;;;;11.83;5.50;;;;;;;;;;6277044;22;20003;-83
2022/06/04 16:08:49;;;;;;;9.35;5.35;;;;;;;;;;6276885;22;20066;-82
2022/06/04 16:12:03;;;;;;;9.80;5.65;;;;;;;;;;6276842;22;20087;-82
2022/06/04 16:14:52;;;;;;;10.68;4.97;;;;;;;;;;6263937;22;20008;-82
2022/06/04 16:17:25;;;;;;;9.00;4.82;;;;;;;;;;6244688;23;20347;-82
2022/06/04 16:20:27;;;;;;;9.25;5.28;;;;;;;;;;6265693;22;19996;-83
2022/06/04 16:23:11;;;;;;;8.07;5.45;;;;;;;;;;6244617;23;20059;-82
2022/06/04 16:26:00;;;;;;;5.80;4.72;;;;;;;;;;6275277;22;20004;-84
2022/06/04 16:28:52;;;;;;;10.27;5.85;;;;;;;;;;6278531;22;20510;-82
2022/06/04 16:31:18;;;;;;;15.00;7.93;;;;;;;;;;6246574;23;20012;-83
2022/06/04 16:33:58;;;;;;;11.52;6.10;;;;;;;;;;6278797;22;20411;-82
2022/06/04 16:36:46;;;;;;;12.75;5.03;;;;;;;;;;6278725;22;20003;-83
2022/06/04 16:39:15;;;;;;;8.73;4.88;;;;;;;;;;6278459;22;20004;-82
2022/06/04 16:42:07;;;;;;;10.52;5.20;;;;;;;;;;6278916;22;20003;-82
2022/06/04 16:44:38;;;;;;;9.35;4.88;;;;;;;;;;6233541;22;20008;-82
2022/06/04 16:47:08;;;;;;;6.95;5.00;;;;;;;;;;6278737;22;20006;-83
2022/06/04 16:49:46;;;;;;;12.10;5.32;;;;;;;;;;6278534;22;20004;-82
2022/06/04 16:52:14;;;;;;;9.63;4.68;;;;;;;;;;6279032;22;20004;-83
2022/06/04 16:54:42;;;;;;;6.20;4.35;;;;;;;;;;6278454;22;20003;-83
2022/06/04 16:57:08;;;;;;;10.40;4.83;;;;;;;;;;6278521;22;20003;-82
2022/06/04 16:59:34;;;;;;;7.30;4.40;;;;;;;;;;6278490;22;20023;-82
2022/06/04 17:02:02;;;;;;;7.22;4.57;;;;;;;;;;6279050;22;20064;-83
2022/06/04 17:04:36;;;;;;;10.27;4.77;;;;;;;;;;6278246;22;20023;-84
2022/06/04 17:07:19;;;;;;;9.43;4.78;;;;;;;;;;6246359;23;20431;-84
2022/06/04 17:10:05;;;;;;;11.63;4.68;;;;;;;;;;6251904;22;20003;-83
2022/06/04 17:12:57;;;;;;;9.25;5.03;;;;;;;;;;6278001;22;20011;-82
2022/06/04 17:15:31;;;;;;;11.82;5.70;;;;;;;;;;6220740;22;20007;-84
2022/06/04 17:18:15;;;;;;;12.07;4.90;;;;;;;;;;6245266;23;20008;-81
2022/06/04 17:20:46;;;;;;;9.20;4.78;;;;;;;;;;6277083;22;20008;-79
2022/06/04 17:23:32;;;;;;;13.40;5.82;;;;;;;;;;6278065;22;20003;-81
2022/06/04 17:26:15;;;;;;;10.32;5.93;;;;;;;;;;6245879;23;20384;-80
2022/06/04 17:29:01;;;;;;;15.63;7.07;;;;;;;;;;6277261;22;20004;-82
2022/06/04 17:31:47;;;;;;;14.23;6.13;;;;;;;;;;6278097;22;20000;-82
2022/06/04 17:34:16;;;;;;;11.25;5.10;;;;;;;;;;6278011;22;20007;-83
2022/06/04 17:37:27;;;;;;;11.88;5.47;;;;;;;;;;6278190;22;20003;-83
2022/06/04 17:40:22;;;;;;;17.40;5.25;;;;;;;;;;6269889;22;20129;-81
2022/06/04 17:42:52;;;;;;;14.15;4.97;;;;;;;;;;6278006;22;20006;-82
2022/06/04 17:45:18;;;;;;;11.52;5.35;;;;;;;;;;6278461;22;20007;-92
2022/06/04 17:47:43;;;;;;;9.82;4.90;;;;;;;;;;6278036;22;20004;-78
2022/06/04 17:50:09;;;;;;;10.32;4.97;;;;;;;;;;6245479;22;20004;-79
2022/06/04 17:52:35;;;;;;;7.82;5.25;;;;;;;;;;6275714;22;20419;-79
2022/06/04 17:55:01;;;;;;;9.35;4.57;;;;;;;;;;6277855;22;20007;-80
2022/06/04 17:57:27;;;;;;;9.70;5.00;;;;;;;;;;6277941;22;20319;-78
2022/06/04 17:59:55;;;;;;;6.72;4.32;;;;;;;;;;6277519;22;19996;-79
2022/06/04 18:02:21;;;;;;;8.95;4.93;;;;;;;;;;6277119;22;20022;-78
2022/06/04 18:04:47;;;;;;;7.80;4.70;;;;;;;;;;6277642;22;20467;-79
2022/06/04 18:07:12;;;;;;;14.50;5.38;;;;;;;;;;6277960;22;20006;-78
2022/06/04 18:09:38;;;;;;;9.48;6.72;;;;;;;;;;6249106;22;20095;-77
2022/06/04 18:12:06;;;;;;;11.80;6.90;;;;;;;;;;6277799;22;20461;-78
2022/06/04 18:14:32;;;;;;;8.57;5.03;;;;;;;;;;6277449;22;20334;-79
2022/06/04 18:16:58;;;;;;;15.02;7.88;;;;;;;;;;6277615;22;20413;-79
2022/06/04 18:19:24;;;;;;;11.38;6.07;;;;;;;;;;6277145;22;20077;-78
2022/06/04 18:21:50;;;;;;;13.02;5.65;;;;;;;;;;6277300;22;19996;-78
2022/06/04 18:24:17;;;;;;;14.77;6.50;;;;;;;;;;6277287;22;20061;-80
2022/06/04 18:26:42;;;;;;;9.40;5.40;;;;;;;;;;6249816;22;20039;-79
2022/06/04 18:29:08;;;;;;;11.13;5.10;;;;;;;;;;6277407;22;20010;-79
2022/06/04 18:31:34;;;;;;;14.52;7.03;;;;;;;;;;6276999;22;20011;-77
2022/06/04 18:34:00;;;;;;;10.63;7.22;;;;;;;;;;6277366;22;20075;-77
2022/06/04 18:36:26;;;;;;;8.93;4.75;;;;;;;;;;6277444;22;19999;-77
2022/06/04 18:38:52;;;;;;;7.50;4.90;;;;;;;;;;6245140;22;20010;-77
2022/06/04 18:41:20;;;;;;;10.48;5.13;;;;;;;;;;6271327;22;20031;-77
2022/06/04 18:54:48;;;;;;;7.55;4.65;;;;;;;;;;6276948;22;20054;-76
2022/06/04 18:57:16;;;;;;;10.13;5.03;;;;;;;;;;6244943;23;20007;-78
2022/06/04 18:59:43;;;;;;;9.70;5.68;;;;;;;;;;6276461;22;20441;-77
2022/06/04 19:02:10;;;;;;;8.68;6.15;;;;;;;;;;6277117;22;20000;-77
2022/06/04 19:04:36;;;;;;;9.40;5.00;;;;;;;;;;6276935;22;20091;-77
2022/06/04 19:07:02;;;;;;;9.07;5.95;;;;;;;;;;6277127;22;20042;-78
2022/06/04 19:09:29;;;;;;;13.27;6.40;;;;;;;;;;6276898;22;20000;-77
2022/06/04 19:14:41;;;;;;;10.02;5.03;;;;;;;;;;6277065;22;20500;-78
2022/06/04 19:17:07;;;;;;;10.13;5.30;;;;;;;;;;6245185;23;20442;-77
2022/06/04 19:19:33;;;;;;;9.27;4.97;;;;;;;;;;6247607;22;20378;-78
2022/06/04 19:24:49;;;;;;;11.35;4.95;;;;;;;;;;6264880;22;20038;-78
2022/06/04 19:27:27;;;;;;;12.00;5.22;;;;;;;;;;6276933;22;19999;-78
2022/06/04 19:30:02;;;;;;;6.50;4.82;;;;;;;;;;6276896;22;20012;-78
2022/06/04 19:32:27;;;;;;;11.45;4.78;;;;;;;;;;6276847;22;20078;-78
2022/06/04 19:34:53;;;;;;;8.95;4.78;;;;;;;;;;6276872;22;20419;-78
2022/06/04 19:37:20;;;;;;;13.02;5.03;;;;;;;;;;6277078;22;20026;-78
2022/06/04 19:39:46;;;;;;;8.25;4.68;;;;;;;;;;6276901;22;20436;-80
2022/06/04 19:42:13;;;;;;;9.98;4.35;;;;;;;;;;6277069;22;20007;-80
2022/06/04 19:44:39;;;;;;;8.20;5.10;;;;;;;;;;6276967;22;20058;-80
2022/06/04 19:47:09;;;;;;;9.45;4.57;;;;;;;;;;6276920;22;20007;-80
2022/06/04 19:49:36;;;;;;;12.55;5.30;;;;;;;;;;6248383;22;20004;-79
2022/06/04 19:52:04;;;;;;;9.35;4.70;;;;;;;;;;6277042;22;20010;-78
2022/06/04 19:57:15;;;;;;;9.52;4.78;;;;;;;;;;6276910;22;20026;-80
2022/06/04 19:59:42;;;;;;;10.70;5.18;;;;;;;;;;6277103;22;20049;-81
2022/06/04 20:02:09;;;;;;;12.82;4.78;;;;;;;;;;6278233;22;20011;-79
2022/06/04 20:04:36;;;;;;;7.32;4.40;;;;;;;;;;6278864;22;20016;-79
2022/06/04 20:07:03;;;;;;;11.10;5.00;;;;;;;;;;6279008;22;20003;-80
2022/06/04 20:09:29;;;;;;;12.00;4.18;;;;;;;;;;6279187;22;20000;-77
2022/06/04 20:11:55;;;;;;;11.75;4.90;;;;;;;;;;6279017;22;20304;-80
2022/06/04 20:14:21;;;;;;;7.93;4.95;;;;;;;;;;6279242;22;20028;-79
2022/06/04 20:16:47;;;;;;;10.13;4.32;;;;;;;;;;6278984;22;20481;-79
2022/06/04 20:19:12;;;;;;;8.95;5.07;;;;;;;;;;6246983;22;20071;-80
2022/06/04 20:21:38;;;;;;;12.15;5.53;;;;;;;;;;6277566;22;20038;-77
2022/06/04 20:24:04;;;;;;;10.50;5.55;;;;;;;;;;6246126;23;20008;-78
2022/06/04 20:26:30;;;;;;;8.55;4.45;;;;;;;;;;6275448;22;20011;-78
2022/06/04 20:28:56;;;;;;;13.95;5.20;;;;;;;;;;6278487;22;20308;-79
2022/06/04 20:31:21;;;;;;;8.75;5.20;;;;;;;;;;6278692;22;20179;-80
2022/06/04 20:33:47;;;;;;;9.13;4.90;;;;;;;;;;6278711;22;20010;-78
2022/06/04 20:36:15;;;;;;;11.65;5.20;;;;;;;;;;6278755;22;20061;-79
2022/06/04 20:38:42;;;;;;;11.57;4.65;;;;;;;;;;6279037;22;20083;-79
2022/06/04 20:41:12;;;;;;;8.15;4.75;;;;;;;;;;6278486;22;20083;-78
2022/06/04 20:43:42;;;;;;;12.23;5.30;;;;;;;;;;6278596;22;20011;-79
2022/06/04 20:46:11;;;;;;;9.77;5.05;;;;;;;;;;6278706;22;20015;-79
2022/06/04 20:48:38;;;;;;;7.35;5.00;;;;;;;;;;6279324;22;20435;-81
2022/06/04 20:51:05;;;;;;;8.68;5.07;;;;;;;;;;6279445;22;20003;-82
2022/06/04 20:53:31;;;;;;;14.00;5.28;;;;;;;;;;6279188;22;20082;-79
2022/06/04 20:55:57;;;;;;;12.20;5.07;;;;;;;;;;6279559;22;20039;-78
2022/06/04 20:58:23;;;;;;;10.60;5.22;;;;;;;;;;6279592;22;20006;-79
2022/06/04 21:00:50;;;;;;;11.68;5.63;;;;;;;;;;6278806;22;20004;-78
2022/06/04 21:03:15;;;;;;;11.00;4.90;;;;;;;;;;6278922;22;20012;-81
2022/06/04 21:05:41;;;;;;;7.68;5.15;;;;;;;;;;6279323;22;20004;-81
2022/06/04 21:08:07;;;;;;;8.48;4.70;;;;;;;;;;6278603;22;20403;-81
2022/06/04 21:10:34;;;;;;;10.95;5.22;;;;;;;;;;6278514;22;19999;-79
2022/06/04 21:12:59;;;;;;;11.25;5.22;;;;;;;;;;6279156;22;20181;-81
2022/06/04 21:15:26;;;;;;;13.13;5.13;;;;;;;;;;6278684;22;20090;-80
2022/06/04 21:17:52;;;;;;;9.35;4.80;;;;;;;;;;6278573;22;20008;-81
2022/06/04 21:20:19;;;;;;;8.00;4.78;;;;;;;;;;6278441;22;20026;-81
2022/06/04 21:22:45;;;;;;;10.93;5.10;;;;;;;;;;6278405;22;20004;-82
2022/06/04 21:25:11;;;;;;;11.60;4.88;;;;;;;;;;6278696;22;20008;-82
2022/06/04 21:27:36;;;;;;;8.85;5.03;;;;;;;;;;6278302;22;20000;-81
2022/06/04 21:30:03;;;;;;;10.35;5.10;;;;;;;;;;6278437;22;20014;-81
2022/06/04 21:32:29;;;;;;;9.80;4.53;;;;;;;;;;6278373;22;20315;-81
2022/06/04 21:37:41;;;;;;;9.15;5.03;;;;;;;;;;6278291;22;20014;-81
2022/06/04 21:40:11;;;;;;;8.63;5.10;;;;;;;;;;6278291;22;20080;-81
2022/06/04 21:42:37;;;;;;;8.82;5.65;;;;;;;;;;6278128;22;20006;-81
2022/06/04 21:45:06;;;;;;;10.35;4.75;;;;;;;;;;6278363;22;20035;-81
2022/06/04 21:47:32;;;;;;;11.45;5.85;;;;;;;;;;6248420;22;20043;-81
2022/06/04 21:49:57;;;;;;;14.27;5.18;;;;;;;;;;6278072;22;20004;-80
2022/06/04 21:52:23;;;;;;;15.95;5.10;;;;;;;;;;6278352;22;20007;-81
2022/06/04 21:54:48;;;;;;;12.35;4.97;;;;;;;;;;6277811;22;20434;-81
2022/06/04 21:57:15;;;;;;;9.13;4.97;;;;;;;;;;6278022;22;20007;-81
2022/06/04 21:59:40;;;;;;;13.23;5.30;;;;;;;;;;6277961;22;20003;-81
2022/06/04 22:02:06;;;;;;;8.70;5.22;;;;;;;;;;6277915;22;20011;-79
2022/06/04 22:04:32;;;;;;;9.90;5.13;;;;;;;;;;6250599;22;20030;-81
